sensor_id;sensor_type;location;lat;lon;timestamp;pressure;altitude;pressure_sealevel;temperature;humidity
75414;BME280;64758;52.122;5.404;2023-12-14T00:00:07;101202.91;;;5.74;100.00
75414;BME280;64758;52.122;5.404;2023-12-14T00:02:34;101220.16;;;5.68;100.00
75414;BME280;64758;52.122;5.404;2023-12-14T00:05:01;101222.91;;;5.67;100.00
75414;BME280;64758;52.122;5.404;2023-12-14T00:07:28;101237.06;;;5.66;100.00
75414;BME280;64758;52.122;5.404;2023-12-14T00:09:54;101241.63;;;5.64;100.00
75414;BME280;64758;52.122;5.404;2023-12-14T00:12:21;101239.44;;;5.59;100.00
75414;BME280;64758;52.122;5.404;2023-12-14T00:14:48;101250.00;;;5.59;100.00
75414;BME280;64758;52.122;5.404;2023-12-14T00:17:14;101252.63;;;5.59;100.00
75414;BME280;64758;52.122;5.404;2023-12-14T00:19:41;101258.72;;;5.60;100.00
75414;BME280;64758;52.122;5.404;2023-12-14T00:22:08;101271.59;;;5.63;100.00
75414;BME280;64758;52.122;5.404;2023-12-14T00:24:35;101265.50;;;5.62;100.00
75414;BME280;64758;52.122;5.404;2023-12-14T00:27:02;101266.50;;;5.61;100.00
75414;BME280;64758;52.122;5.404;2023-12-14T00:29:28;101276.88;;;5.63;100.00
75414;BME280;64758;52.122;5.404;2023-12-14T00:31:55;101287.56;;;5.61;100.00
75414;BME280;64758;52.122;5.404;2023-12-14T00:34:21;101289.22;;;5.62;100.00
75414;BME280;64758;52.122;5.404;2023-12-14T00:36:48;101284.94;;;5.61;100.00
75414;BME280;64758;52.122;5.404;2023-12-14T00:39:14;101285.75;;;5.62;100.00
75414;BME280;64758;52.122;5.404;2023-12-14T00:41:41;101295.47;;;5.61;100.00
75414;BME280;64758;52.122;5.404;2023-12-14T00:44:08;101291.00;;;5.62;100.00
75414;BME280;64758;52.122;5.404;2023-12-14T00:46:34;101291.00;;;5.62;100.00
75414;BME280;64758;52.122;5.404;2023-12-14T00:49:01;101281.31;;;5.62;100.00
75414;BME280;64758;52.122;5.404;2023-12-14T00:51:28;101289.22;;;5.62;100.00
75414;BME280;64758;52.122;5.404;2023-12-14T00:53:55;101297.13;;;5.62;100.00
75414;BME280;64758;52.122;5.404;2023-12-14T00:56:21;101306.81;;;5.62;100.00
75414;BME280;64758;52.122;5.404;2023-12-14T00:58:48;101307.97;;;5.59;100.00
75414;BME280;64758;52.122;5.404;2023-12-14T01:01:15;101302.97;;;5.56;100.00
75414;BME280;64758;52.122;5.404;2023-12-14T01:03:41;101309.06;;;5.57;100.00
75414;BME280;64758;52.122;5.404;2023-12-14T01:06:08;101317.81;;;5.57;100.00
75414;BME280;64758;52.122;5.404;2023-12-14T01:08:35;101328.47;;;5.56;100.00
75414;BME280;64758;52.122;5.404;2023-12-14T01:11:01;101324.47;;;5.52;100.00
75414;BME280;64758;52.122;5.404;2023-12-14T01:13:28;101346.22;;;5.54;100.00
75414;BME280;64758;52.122;5.404;2023-12-14T01:15:54;101347.06;;;5.54;100.00
75414;BME280;64758;52.122;5.404;2023-12-14T01:18:21;101342.91;;;5.52;100.00
75414;BME280;64758;52.122;5.404;2023-12-14T01:20:48;101348.31;;;5.50;100.00
75414;BME280;64758;52.122;5.404;2023-12-14T01:23:14;101351.78;;;5.51;100.00
75414;BME280;64758;52.122;5.404;2023-12-14T01:25:41;101353.44;;;5.52;100.00
75414;BME280;64758;52.122;5.404;2023-12-14T01:28:07;101358.31;;;5.56;100.00
75414;BME280;64758;52.122;5.404;2023-12-14T01:30:35;101360.94;;;5.56;100.00
75414;BME280;64758;52.122;5.404;2023-12-14T01:33:01;101359.28;;;5.55;100.00
75414;BME280;64758;52.122;5.404;2023-12-14T01:35:28;101365.50;;;5.54;100.00
75414;BME280;64758;52.122;5.404;2023-12-14T01:37:56;101369.66;;;5.57;100.00
75414;BME280;64758;52.122;5.404;2023-12-14T01:40:22;101361.22;;;5.53;100.00
75414;BME280;64758;52.122;5.404;2023-12-14T01:42:49;101374.22;;;5.55;100.00
75414;BME280;64758;52.122;5.404;2023-12-14T01:45:16;101373.41;;;5.54;100.00
75414;BME280;64758;52.122;5.404;2023-12-14T01:47:43;101375.06;;;5.55;100.00
75414;BME280;64758;52.122;5.404;2023-12-14T01:50:10;101382.13;;;5.55;100.00
75414;BME280;64758;52.122;5.404;2023-12-14T01:52:36;101397.81;;;5.56;100.00
75414;BME280;64758;52.122;5.404;2023-12-14T01:55:04;101404.75;;;5.57;100.00
75414;BME280;64758;52.122;5.404;2023-12-14T01:57:30;101410.00;;;5.57;100.00
75414;BME280;64758;52.122;5.404;2023-12-14T01:59:57;101420.97;;;5.53;100.00
75414;BME280;64758;52.122;5.404;2023-12-14T02:02:23;101422.50;;;5.55;100.00
75414;BME280;64758;52.122;5.404;2023-12-14T02:04:50;101414.72;;;5.54;100.00
75414;BME280;64758;52.122;5.404;2023-12-14T02:07:17;101423.31;;;5.56;100.00
75414;BME280;64758;52.122;5.404;2023-12-14T02:09:43;101434.00;;;5.54;100.00
75414;BME280;64758;52.122;5.404;2023-12-14T02:12:10;101440.94;;;5.55;100.00
75414;BME280;64758;52.122;5.404;2023-12-14T02:14:36;101443.41;;;5.57;100.00
75414;BME280;64758;52.122;5.404;2023-12-14T02:17:03;101441.63;;;5.57;100.00
75414;BME280;64758;52.122;5.404;2023-12-14T02:19:29;101453.00;;;5.58;100.00
75414;BME280;64758;52.122;5.404;2023-12-14T02:21:56;101455.78;;;5.56;100.00
75414;BME280;64758;52.122;5.404;2023-12-14T02:24:22;101459.09;;;5.58;100.00
75414;BME280;64758;52.122;5.404;2023-12-14T02:26:49;101458.25;;;5.58;100.00
75414;BME280;64758;52.122;5.404;2023-12-14T02:29:29;101472.28;;;5.58;100.00
75414;BME280;64758;52.122;5.404;2023-12-14T02:31:55;101479.34;;;5.58;100.00
75414;BME280;64758;52.122;5.404;2023-12-14T02:34:22;101487.81;;;5.61;100.00
75414;BME280;64758;52.122;5.404;2023-12-14T02:36:51;101492.38;;;5.59;100.00
75414;BME280;64758;52.122;5.404;2023-12-14T02:39:17;101502.66;;;5.62;100.00
75414;BME280;64758;52.122;5.404;2023-12-14T02:41:44;101501.69;;;5.63;100.00
75414;BME280;64758;52.122;5.404;2023-12-14T02:44:10;101499.31;;;5.60;100.00
75414;BME280;64758;52.122;5.404;2023-12-14T02:46:37;101498.34;;;5.61;100.00
75414;BME280;64758;52.122;5.404;2023-12-14T02:49:04;101502.66;;;5.62;100.00
75414;BME280;64758;52.122;5.404;2023-12-14T02:51:30;101502.66;;;5.62;100.00
75414;BME280;64758;52.122;5.404;2023-12-14T02:53:57;101512.34;;;5.62;100.00
75414;BME280;64758;52.122;5.404;2023-12-14T02:56:24;101522.06;;;5.61;100.00
75414;BME280;64758;52.122;5.404;2023-12-14T02:58:50;101520.41;;;5.60;100.00
75414;BME280;64758;52.122;5.404;2023-12-14T03:01:20;101515.13;;;5.60;100.00
75414;BME280;64758;52.122;5.404;2023-12-14T03:03:50;101518.72;;;5.59;100.00
75414;BME280;64758;52.122;5.404;2023-12-14T03:06:17;101517.75;;;5.60;100.00
75414;BME280;64758;52.122;5.404;2023-12-14T03:08:43;101525.41;;;5.63;100.00
75414;BME280;64758;52.122;5.404;2023-12-14T03:11:10;101525.50;;;5.62;100.00
75414;BME280;64758;52.122;5.404;2023-12-14T03:13:37;101529.97;;;5.61;100.00
75414;BME280;64758;52.122;5.404;2023-12-14T03:16:04;101530.94;;;5.60;100.00
75414;BME280;64758;52.122;5.404;2023-12-14T03:18:31;101532.88;;;5.58;100.00
75414;BME280;64758;52.122;5.404;2023-12-14T03:20:57;101535.50;;;5.58;100.00
75414;BME280;64758;52.122;5.404;2023-12-14T03:23:24;101534.81;;;5.56;100.00
75414;BME280;64758;52.122;5.404;2023-12-14T03:25:50;101537.28;;;5.58;100.00
75414;BME280;64758;52.122;5.404;2023-12-14T03:28:17;101545.09;;;5.59;100.00
75414;BME280;64758;52.122;5.404;2023-12-14T03:30:44;101541.75;;;5.57;100.00
75414;BME280;64758;52.122;5.404;2023-12-14T03:33:10;101532.03;;;5.58;100.00
75414;BME280;64758;52.122;5.404;2023-12-14T03:35:37;101540.78;;;5.58;100.00
75414;BME280;64758;52.122;5.404;2023-12-14T03:38:04;101531.47;;;5.54;100.00
75414;BME280;64758;52.122;5.404;2023-12-14T03:40:31;101533.97;;;5.56;100.00
75414;BME280;64758;52.122;5.404;2023-12-14T03:42:57;101532.31;;;5.55;100.00
75414;BME280;64758;52.122;5.404;2023-12-14T03:45:24;101532.19;;;5.56;100.00
75414;BME280;64758;52.122;5.404;2023-12-14T03:47:50;101537.56;;;5.55;100.00
75414;BME280;64758;52.122;5.404;2023-12-14T03:50:17;101541.59;;;5.59;100.00
75414;BME280;64758;52.122;5.404;2023-12-14T03:52:44;101539.13;;;5.57;100.00
75414;BME280;64758;52.122;5.404;2023-12-14T03:55:11;101542.72;;;5.56;100.00
75414;BME280;64758;52.122;5.404;2023-12-14T03:57:37;101546.06;;;5.58;100.00
75414;BME280;64758;52.122;5.404;2023-12-14T04:00:04;101548.41;;;5.61;100.00
75414;BME280;64758;52.122;5.404;2023-12-14T04:02:31;101552.84;;;5.61;100.00
75414;BME280;64758;52.122;5.404;2023-12-14T04:04:58;101556.44;;;5.60;100.00
75414;BME280;64758;52.122;5.404;2023-12-14T04:07:25;101555.63;;;5.59;100.00
75414;BME280;64758;52.122;5.404;2023-12-14T04:09:51;101570.72;;;5.57;100.00
75414;BME280;64758;52.122;5.404;2023-12-14T04:12:18;101572.66;;;5.55;100.00
75414;BME280;64758;52.122;5.404;2023-12-14T04:14:46;101579.19;;;5.51;100.00
75414;BME280;64758;52.122;5.404;2023-12-14T04:17:12;101582.91;;;5.49;100.00
75414;BME280;64758;52.122;5.404;2023-12-14T04:19:39;101580.41;;;5.47;100.00
75414;BME280;64758;52.122;5.404;2023-12-14T04:22:06;101589.41;;;5.45;100.00
75414;BME280;64758;52.122;5.404;2023-12-14T04:24:33;101594.56;;;5.46;100.00
75414;BME280;64758;52.122;5.404;2023-12-14T04:26:59;101596.06;;;5.49;100.00
75414;BME280;64758;52.122;5.404;2023-12-14T04:29:26;101605.78;;;5.48;100.00
75414;BME280;64758;52.122;5.404;2023-12-14T04:31:53;101606.06;;;5.45;100.00
75414;BME280;64758;52.122;5.404;2023-12-14T04:34:20;101611.06;;;5.48;100.00
75414;BME280;64758;52.122;5.404;2023-12-14T04:36:46;101615.38;;;5.49;100.00
75414;BME280;64758;52.122;5.404;2023-12-14T04:39:13;101614.09;;;5.44;100.00
75414;BME280;64758;52.122;5.404;2023-12-14T04:41:39;101621.88;;;5.45;100.00
75414;BME280;64758;52.122;5.404;2023-12-14T04:44:06;101629.78;;;5.45;100.00
75414;BME280;64758;52.122;5.404;2023-12-14T04:46:32;101632.53;;;5.44;100.00
75414;BME280;64758;52.122;5.404;2023-12-14T04:48:59;101636.28;;;5.41;100.00
75414;BME280;64758;52.122;5.404;2023-12-14T04:51:26;101648.75;;;5.39;100.00
75414;BME280;64758;52.122;5.404;2023-12-14T04:53:53;101650.41;;;5.40;100.00
75414;BME280;64758;52.122;5.404;2023-12-14T04:56:19;101661.75;;;5.41;100.00
75414;BME280;64758;52.122;5.404;2023-12-14T04:58:46;101659.00;;;5.42;100.00
75414;BME280;64758;52.122;5.404;2023-12-14T05:01:12;101674.81;;;5.42;100.00
75414;BME280;64758;52.122;5.404;2023-12-14T05:03:39;101672.31;;;5.41;100.00
75414;BME280;64758;52.122;5.404;2023-12-14T05:06:06;101681.75;;;5.43;100.00
75414;BME280;64758;52.122;5.404;2023-12-14T05:08:33;101677.03;;;5.47;100.00
75414;BME280;64758;52.122;5.404;2023-12-14T05:11:00;101692.72;;;5.48;100.00
75414;BME280;64758;52.122;5.404;2023-12-14T05:13:26;101693.69;;;5.47;100.00
75414;BME280;64758;52.122;5.404;2023-12-14T05:15:53;101698.81;;;5.49;100.00
75414;BME280;64758;52.122;5.404;2023-12-14T05:18:19;101696.44;;;5.46;100.00
75414;BME280;64758;52.122;5.404;2023-12-14T05:20:46;101718.94;;;5.50;100.00
75414;BME280;64758;52.122;5.404;2023-12-14T05:23:13;101720.75;;;5.49;100.00
75414;BME280;64758;52.122;5.404;2023-12-14T05:25:40;101721.97;;;5.45;100.00
75414;BME280;64758;52.122;5.404;2023-12-14T05:28:06;101734.56;;;5.42;100.00
75414;BME280;64758;52.122;5.404;2023-12-14T05:30:33;101737.44;;;5.39;100.00
75414;BME280;64758;52.122;5.404;2023-12-14T05:33:00;101741.19;;;5.36;100.00
75414;BME280;64758;52.122;5.404;2023-12-14T05:35:26;101736.91;;;5.35;100.00
75414;BME280;64758;52.122;5.404;2023-12-14T05:37:53;101749.81;;;5.38;100.00
75414;BME280;64758;52.122;5.404;2023-12-14T05:40:19;101748.94;;;5.38;100.00
75414;BME280;64758;52.122;5.404;2023-12-14T05:42:46;101748.13;;;5.37;100.00
75414;BME280;64758;52.122;5.404;2023-12-14T05:45:12;101767.66;;;5.35;100.00
75414;BME280;64758;52.122;5.404;2023-12-14T05:47:39;101751.28;;;5.31;100.00
75414;BME280;64758;52.122;5.404;2023-12-14T05:50:08;101761.81;;;5.31;100.00
75414;BME280;64758;52.122;5.404;2023-12-14T05:52:36;101764.56;;;5.30;100.00
75414;BME280;64758;52.122;5.404;2023-12-14T05:55:06;101762.09;;;5.28;100.00
75414;BME280;64758;52.122;5.404;2023-12-14T05:57:33;101771.22;;;5.24;100.00
75414;BME280;64758;52.122;5.404;2023-12-14T06:00:00;101772.16;;;5.23;100.00
75414;BME280;64758;52.122;5.404;2023-12-14T06:02:26;101777.69;;;5.20;100.00
75414;BME280;64758;52.122;5.404;2023-12-14T06:04:53;101782.81;;;5.22;100.00
75414;BME280;64758;52.122;5.404;2023-12-14T06:07:20;101795.97;;;5.22;100.00
75414;BME280;64758;52.122;5.404;2023-12-14T06:09:46;101798.50;;;5.23;100.00
75414;BME280;64758;52.122;5.404;2023-12-14T06:12:13;101799.72;;;5.19;100.00
75414;BME280;64758;52.122;5.404;2023-12-14T06:14:40;101807.28;;;5.13;100.00
75414;BME280;64758;52.122;5.404;2023-12-14T06:17:07;101802.16;;;5.11;100.00
75414;BME280;64758;52.122;5.404;2023-12-14T06:19:33;101811.16;;;5.09;100.00
75414;BME280;64758;52.122;5.404;2023-12-14T06:22:00;101808.78;;;5.06;100.00
75414;BME280;64758;52.122;5.404;2023-12-14T06:24:27;101823.72;;;5.05;100.00
75414;BME280;64758;52.122;5.404;2023-12-14T06:26:53;101816.78;;;5.04;100.00
75414;BME280;64758;52.122;5.404;2023-12-14T06:29:20;101829.72;;;5.07;100.00
75414;BME280;64758;52.122;5.404;2023-12-14T06:31:46;101835.94;;;5.06;100.00
75414;BME280;64758;52.122;5.404;2023-12-14T06:34:13;101837.75;;;5.06;100.00
75414;BME280;64758;52.122;5.404;2023-12-14T06:36:44;101855.06;;;5.08;100.00
75414;BME280;64758;52.122;5.404;2023-12-14T06:39:11;101857.00;;;5.06;100.00
75414;BME280;64758;52.122;5.404;2023-12-14T06:41:37;101868.63;;;5.04;100.00
75414;BME280;64758;52.122;5.404;2023-12-14T06:44:05;101866.34;;;4.99;100.00
75414;BME280;64758;52.122;5.404;2023-12-14T06:46:31;101873.44;;;4.99;100.00
75414;BME280;64758;52.122;5.404;2023-12-14T06:48:58;101882.16;;;4.99;100.00
75414;BME280;64758;52.122;5.404;2023-12-14T06:51:25;101876.88;;;4.99;100.00
75414;BME280;64758;52.122;5.404;2023-12-14T06:53:51;101874.16;;;5.01;100.00
75414;BME280;64758;52.122;5.404;2023-12-14T06:56:18;101889.09;;;5.00;100.00
75414;BME280;64758;52.122;5.404;2023-12-14T06:58:45;101891.00;;;4.98;100.00
75414;BME280;64758;52.122;5.404;2023-12-14T07:01:13;101883.34;;;4.96;100.00
75414;BME280;64758;52.122;5.404;2023-12-14T07:03:41;101902.63;;;4.96;100.00
75414;BME280;64758;52.122;5.404;2023-12-14T07:06:11;101904.81;;;4.91;100.00
75414;BME280;64758;52.122;5.404;2023-12-14T07:08:39;101917.00;;;4.92;100.00
75414;BME280;64758;52.122;5.404;2023-12-14T07:11:07;101915.91;;;4.95;100.00
75414;BME280;64758;52.122;5.404;2023-12-14T07:13:34;101921.16;;;4.95;100.00
75414;BME280;64758;52.122;5.404;2023-12-14T07:16:09;101926.56;;;4.93;100.00
75414;BME280;64758;52.122;5.404;2023-12-14T07:18:41;101935.03;;;4.97;100.00
75414;BME280;64758;52.122;5.404;2023-12-14T07:21:08;101933.63;;;4.93;100.00
75414;BME280;64758;52.122;5.404;2023-12-14T07:23:36;101937.22;;;4.92;100.00
75414;BME280;64758;52.122;5.404;2023-12-14T07:26:02;101942.47;;;4.92;100.00
75414;BME280;64758;52.122;5.404;2023-12-14T07:28:33;101935.69;;;4.89;100.00
75414;BME280;64758;52.122;5.404;2023-12-14T07:30:59;101946.06;;;4.91;100.00
75414;BME280;64758;52.122;5.404;2023-12-14T07:33:26;101952.44;;;4.88;100.00
75414;BME280;64758;52.122;5.404;2023-12-14T07:35:53;101948.22;;;4.86;100.00
75414;BME280;64758;52.122;5.404;2023-12-14T07:38:19;101945.38;;;4.78;100.00
75414;BME280;64758;52.122;5.404;2023-12-14T07:40:46;101951.72;;;4.75;100.00
75414;BME280;64758;52.122;5.404;2023-12-14T07:43:13;101961.16;;;4.78;100.00
75414;BME280;64758;52.122;5.404;2023-12-14T07:45:39;101962.84;;;4.79;100.00
75414;BME280;64758;52.122;5.404;2023-12-14T07:48:06;101962.00;;;4.78;100.00
75414;BME280;64758;52.122;5.404;2023-12-14T07:50:33;101976.94;;;4.78;100.00
75414;BME280;64758;52.122;5.404;2023-12-14T07:52:59;101978.03;;;4.75;100.00
75414;BME280;64758;52.122;5.404;2023-12-14T07:55:26;101981.25;;;4.79;100.00
75414;BME280;64758;52.122;5.404;2023-12-14T07:57:52;101983.53;;;4.83;100.00
75414;BME280;64758;52.122;5.404;2023-12-14T08:00:19;101980.91;;;4.83;100.00
75414;BME280;64758;52.122;5.404;2023-12-14T08:02:46;101986.75;;;4.87;100.00
75414;BME280;64758;52.122;5.404;2023-12-14T08:05:12;101986.66;;;4.88;100.00
75414;BME280;64758;52.122;5.404;2023-12-14T08:07:39;101985.44;;;4.92;100.00
75414;BME280;64758;52.122;5.404;2023-12-14T08:10:06;101991.41;;;4.94;100.00
75414;BME280;64758;52.122;5.404;2023-12-14T08:12:32;102000.03;;;4.96;100.00
75414;BME280;64758;52.122;5.404;2023-12-14T08:14:59;101995.47;;;4.98;100.00
75414;BME280;64758;52.122;5.404;2023-12-14T08:17:26;102002.91;;;4.93;100.00
75414;BME280;64758;52.122;5.404;2023-12-14T08:19:54;102003.16;;;4.90;100.00
75414;BME280;64758;52.122;5.404;2023-12-14T08:22:21;102011.03;;;4.90;100.00
75414;BME280;64758;52.122;5.404;2023-12-14T08:24:48;102011.16;;;4.89;100.00
75414;BME280;64758;52.122;5.404;2023-12-14T08:27:15;102019.19;;;4.87;100.00
75414;BME280;64758;52.122;5.404;2023-12-14T08:29:41;102028.75;;;4.88;100.00
75414;BME280;64758;52.122;5.404;2023-12-14T08:32:08;102031.16;;;4.91;100.00
75414;BME280;64758;52.122;5.404;2023-12-14T08:34:35;102037.22;;;4.92;100.00
75414;BME280;64758;52.122;5.404;2023-12-14T08:37:01;102033.41;;;4.96;100.00
75414;BME280;64758;52.122;5.404;2023-12-14T08:39:29;102030.78;;;4.96;100.00
75414;BME280;64758;52.122;5.404;2023-12-14T08:41:55;102032.44;;;4.97;100.00
75414;BME280;64758;52.122;5.404;2023-12-14T08:44:22;102043.81;;;4.97;100.00
75414;BME280;64758;52.122;5.404;2023-12-14T08:46:48;102046.09;;;5.01;100.00
75414;BME280;64758;52.122;5.404;2023-12-14T08:49:15;102041.66;;;5.02;100.00
75414;BME280;64758;52.122;5.404;2023-12-14T08:51:42;102054.34;;;5.08;100.00
75414;BME280;64758;52.122;5.404;2023-12-14T08:54:09;102060.19;;;5.11;100.00
75414;BME280;64758;52.122;5.404;2023-12-14T08:56:36;102071.53;;;5.12;100.00
75414;BME280;64758;52.122;5.404;2023-12-14T08:59:02;102071.44;;;5.13;100.00
75414;BME280;64758;52.122;5.404;2023-12-14T09:01:30;102072.16;;;5.15;100.00
75414;BME280;64758;52.122;5.404;2023-12-14T09:03:57;102070.47;;;5.14;100.00
75414;BME280;64758;52.122;5.404;2023-12-14T09:06:24;102078.00;;;5.19;100.00
75414;BME280;64758;52.122;5.404;2023-12-14T09:08:50;102084.13;;;5.19;100.00
75414;BME280;64758;52.122;5.404;2023-12-14T09:11:17;102076.69;;;5.24;100.00
75414;BME280;64758;52.122;5.404;2023-12-14T09:13:44;102086.28;;;5.25;100.00
75414;BME280;64758;52.122;5.404;2023-12-14T09:16:11;102092.50;;;5.24;100.00
75414;BME280;64758;52.122;5.404;2023-12-14T09:18:38;102104.09;;;5.22;100.00
75414;BME280;64758;52.122;5.404;2023-12-14T09:21:05;102099.53;;;5.24;100.00
75414;BME280;64758;52.122;5.404;2023-12-14T09:23:32;102101.13;;;5.26;100.00
75414;BME280;64758;52.122;5.404;2023-12-14T09:25:58;102115.00;;;5.28;100.00
75414;BME280;64758;52.122;5.404;2023-12-14T09:28:25;102112.94;;;5.32;100.00
75414;BME280;64758;52.122;5.404;2023-12-14T09:30:53;102117.25;;;5.33;100.00
75414;BME280;64758;52.122;5.404;2023-12-14T09:33:20;102109.34;;;5.33;100.00
75414;BME280;64758;52.122;5.404;2023-12-14T09:35:47;102121.47;;;5.35;100.00
75414;BME280;64758;52.122;5.404;2023-12-14T09:38:13;102123.13;;;5.36;100.00
75414;BME280;64758;52.122;5.404;2023-12-14T09:40:44;102128.41;;;5.36;100.00
75414;BME280;64758;52.122;5.404;2023-12-14T09:43:11;102126.59;;;5.37;100.00
75414;BME280;64758;52.122;5.404;2023-12-14T09:45:41;102136.16;;;5.38;100.00
75414;BME280;64758;52.122;5.404;2023-12-14T09:48:11;102143.97;;;5.39;100.00
75414;BME280;64758;52.122;5.404;2023-12-14T09:50:39;102143.00;;;5.40;100.00
75414;BME280;64758;52.122;5.404;2023-12-14T09:53:08;102150.78;;;5.42;100.00
75414;BME280;64758;52.122;5.404;2023-12-14T09:55:35;102162.03;;;5.44;100.00
75414;BME280;64758;52.122;5.404;2023-12-14T09:58:02;102178.69;;;5.44;100.00
75414;BME280;64758;52.122;5.404;2023-12-14T10:00:39;102168.97;;;5.45;100.00
75414;BME280;64758;52.122;5.404;2023-12-14T10:03:27;102186.59;;;5.44;100.00
75414;BME280;64758;52.122;5.404;2023-12-14T10:05:55;102187.31;;;5.46;100.00
75414;BME280;64758;52.122;5.404;2023-12-14T10:08:23;102195.94;;;5.48;100.00
75414;BME280;64758;52.122;5.404;2023-12-14T10:10:52;102196.66;;;5.50;100.00
75414;BME280;64758;52.122;5.404;2023-12-14T10:13:21;102197.47;;;5.51;100.00
75414;BME280;64758;52.122;5.404;2023-12-14T10:15:48;102190.44;;;5.51;100.00
75414;BME280;64758;52.122;5.404;2023-12-14T10:18:23;102190.75;;;5.58;100.00
75414;BME280;64758;52.122;5.404;2023-12-14T10:20:54;102181.41;;;5.65;100.00
75414;BME280;64758;52.122;5.404;2023-12-14T10:23:20;102183.47;;;5.72;100.00
75414;BME280;64758;52.122;5.404;2023-12-14T10:25:47;102189.94;;;5.79;100.00
75414;BME280;64758;52.122;5.404;2023-12-14T10:28:14;102189.47;;;5.85;100.00
75414;BME280;64758;52.122;5.404;2023-12-14T10:30:41;102190.88;;;5.89;100.00
75414;BME280;64758;52.122;5.404;2023-12-14T10:33:08;102194.34;;;5.90;100.00
75414;BME280;64758;52.122;5.404;2023-12-14T10:35:35;102198.78;;;6.00;100.00
75414;BME280;64758;52.122;5.404;2023-12-14T10:38:04;102195.75;;;6.05;100.00
75414;BME280;64758;52.122;5.404;2023-12-14T10:40:36;102193.00;;;6.06;100.00
75414;BME280;64758;52.122;5.404;2023-12-14T10:43:07;102197.56;;;6.04;100.00
75414;BME280;64758;52.122;5.404;2023-12-14T10:45:35;102197.19;;;6.09;100.00
75414;BME280;64758;52.122;5.404;2023-12-14T10:48:03;102199.09;;;6.07;100.00
75414;BME280;64758;52.122;5.404;2023-12-14T10:50:31;102197.44;;;6.06;100.00
75414;BME280;64758;52.122;5.404;2023-12-14T10:53:00;102199.25;;;6.05;100.00
75414;BME280;64758;52.122;5.404;2023-12-14T10:55:33;102200.66;;;6.09;100.00
75414;BME280;64758;52.122;5.404;2023-12-14T10:58:03;102197.06;;;6.10;100.00
75414;BME280;64758;52.122;5.404;2023-12-14T11:00:33;102201.63;;;6.08;100.00
75414;BME280;64758;52.122;5.404;2023-12-14T11:03:00;102204.72;;;6.13;100.00
75414;BME280;64758;52.122;5.404;2023-12-14T11:05:27;102209.06;;;6.14;100.00
75414;BME280;64758;52.122;5.404;2023-12-14T11:08:04;102215.84;;;6.17;100.00
75414;BME280;64758;52.122;5.404;2023-12-14T11:10:41;102222.00;;;6.17;100.00
75414;BME280;64758;52.122;5.404;2023-12-14T11:13:10;102230.97;;;6.15;100.00
75414;BME280;64758;52.122;5.404;2023-12-14T11:15:39;102223.19;;;6.13;100.00
75414;BME280;64758;52.122;5.404;2023-12-14T11:23:17;102231.34;;;6.21;99.97
75414;BME280;64758;52.122;5.404;2023-12-14T11:25:47;102247.16;;;6.21;98.96
75414;BME280;64758;52.122;5.404;2023-12-14T11:28:21;102237.53;;;6.31;99.04
75414;BME280;64758;52.122;5.404;2023-12-14T11:30:52;102237.03;;;6.37;98.39
75414;BME280;64758;52.122;5.404;2023-12-14T11:33:22;102236.97;;;6.48;99.08
75414;BME280;64758;52.122;5.404;2023-12-14T11:35:52;102241.88;;;6.52;98.95
75414;BME280;64758;52.122;5.404;2023-12-14T11:38:19;102241.38;;;6.58;99.29
75414;BME280;64758;52.122;5.404;2023-12-14T11:40:48;102242.66;;;6.64;98.16
75414;BME280;64758;52.122;5.404;2023-12-14T11:43:15;102242.56;;;6.65;97.43
75414;BME280;64758;52.122;5.404;2023-12-14T11:45:42;102240.47;;;6.69;97.53
75414;BME280;64758;52.122;5.404;2023-12-14T11:48:11;102234.03;;;6.62;97.77
75414;BME280;64758;52.122;5.404;2023-12-14T11:50:39;102232.69;;;6.67;97.97
75414;BME280;64758;52.122;5.404;2023-12-14T11:53:07;102235.03;;;6.81;97.46
75414;BME280;64758;52.122;5.404;2023-12-14T11:55:35;102249.91;;;6.82;97.40
75414;BME280;64758;52.122;5.404;2023-12-14T11:58:03;102247.84;;;6.86;97.42
75414;BME280;64758;52.122;5.404;2023-12-14T12:00:31;102248.19;;;6.92;97.41
75414;BME280;64758;52.122;5.404;2023-12-14T12:03:12;102250.44;;;6.97;96.92
75414;BME280;64758;52.122;5.404;2023-12-14T12:05:41;102245.41;;;6.94;96.30
75414;BME280;64758;52.122;5.404;2023-12-14T12:08:09;102254.19;;;6.94;96.14
75414;BME280;64758;52.122;5.404;2023-12-14T12:10:37;102254.75;;;6.98;95.77
75414;BME280;64758;52.122;5.404;2023-12-14T12:13:07;102254.03;;;6.96;95.65
75414;BME280;64758;52.122;5.404;2023-12-14T12:15:35;102250.47;;;6.86;94.71
75414;BME280;64758;52.122;5.404;2023-12-14T12:18:07;102260.69;;;6.90;95.59
75414;BME280;64758;52.122;5.404;2023-12-14T12:20:35;102259.31;;;6.96;95.49
75414;BME280;64758;52.122;5.404;2023-12-14T12:23:01;102260.88;;;6.98;95.91
75414;BME280;64758;52.122;5.404;2023-12-14T12:25:32;102263.53;;;6.98;95.90
75414;BME280;64758;52.122;5.404;2023-12-14T12:28:00;102266.00;;;7.00;95.24
75414;BME280;64758;52.122;5.404;2023-12-14T12:30:31;102263.97;;;7.03;95.78
75414;BME280;64758;52.122;5.404;2023-12-14T12:32:57;102267.31;;;7.05;95.87
75414;BME280;64758;52.122;5.404;2023-12-14T12:35:25;102265.50;;;7.06;95.76
75414;BME280;64758;52.122;5.404;2023-12-14T12:37:52;102269.81;;;7.07;96.02
75414;BME280;64758;52.122;5.404;2023-12-14T12:40:23;102270.06;;;7.04;95.06
75414;BME280;64758;52.122;5.404;2023-12-14T12:42:52;102269.38;;;7.02;95.41
75414;BME280;64758;52.122;5.404;2023-12-14T12:45:19;102284.97;;;7.05;95.55
75414;BME280;64758;52.122;5.404;2023-12-14T12:47:48;102285.81;;;7.05;95.18
75414;BME280;64758;52.122;5.404;2023-12-14T12:50:15;102283.28;;;7.04;95.44
75414;BME280;64758;52.122;5.404;2023-12-14T12:52:42;102276.31;;;7.03;95.48
75414;BME280;64758;52.122;5.404;2023-12-14T12:55:09;102281.34;;;7.06;96.01